createdAt,value
2023-01-19T01:09:33.418Z,24.80
2023-01-19T01:27:43.594Z,23.40
2023-01-19T01:47:46.293Z,22.48
2023-01-19T02:23:45.620Z,23.08
2023-01-19T02:43:27.560Z,60.45
2023-01-19T03:42:13.182Z,26.33
2023-01-19T03:44:16.899Z,28.98
2023-01-19T03:49:07.645Z,28.00
2023-01-19T03:55:14.665Z,27.10
2023-01-19T03:57:44.909Z,27.67
2023-01-19T05:20:17.576Z,26.95
2023-01-19T05:31:18.773Z,25.77
2023-01-19T05:36:40.605Z,24.92
2023-01-19T05:58:30.654Z,21.50
2023-01-19T06:03:58.686Z,25.95
2023-01-19T06:06:27.969Z,25.63
2023-01-19T06:11:44.776Z,23.23
2023-01-19T06:27:53.825Z,31.38
2023-01-19T06:35:51.182Z,27.27
2023-01-19T06:37:54.108Z,24.83
2023-01-19T06:39:57.105Z,22.13
2023-01-19T06:42:05.697Z,23.52
2023-01-19T06:56:04.336Z,23.90
2023-01-19T06:58:12.636Z,23.30
2023-01-19T07:00:17.363Z,26.17
2023-01-19T07:02:26.639Z,26.85
2023-01-19T07:04:30.193Z,26.33
2023-01-19T07:11:49.819Z,25.95
2023-01-19T07:13:54.667Z,27.25
2023-01-19T07:15:56.822Z,27.00
2023-01-19T07:18:05.577Z,25.10
2023-01-19T07:22:39.454Z,25.00
2023-01-19T07:26:43.772Z,24.83
2023-01-19T07:28:47.425Z,25.75
2023-01-19T07:30:54.288Z,25.70
2023-01-19T07:33:00.093Z,27.45
2023-01-19T07:35:02.429Z,31.58
2023-01-19T07:37:05.268Z,33.15
2023-01-19T07:39:07.429Z,33.42
2023-01-19T07:41:10.686Z,35.92
2023-01-19T07:43:13.299Z,38.05
2023-01-19T07:45:17.229Z,36.33
2023-01-19T07:47:19.416Z,28.50
2023-01-19T07:49:22.987Z,29.40
2023-01-19T07:51:25.190Z,29.25
2023-01-19T07:53:27.338Z,31.70
2023-01-19T07:55:30.269Z,32.78
2023-01-19T07:57:32.364Z,32.40
2023-01-19T07:59:34.455Z,35.50
2023-01-19T08:01:36.936Z,34.72
2023-01-19T08:03:39.380Z,30.73
2023-01-19T08:05:41.946Z,28.90
2023-01-19T08:09:48.022Z,26.25
2023-01-19T08:13:52.027Z,29.13
2023-01-19T08:15:54.377Z,32.95
2023-01-19T08:18:05.746Z,33.35
2023-01-19T08:20:09.449Z,32.97
2023-01-19T08:22:11.492Z,37.22
2023-01-19T08:24:19.634Z,38.55
2023-01-19T08:26:33.015Z,43.13
2023-01-19T08:28:35.045Z,52.53
2023-01-19T08:30:37.243Z,56.13
2023-01-19T08:32:39.324Z,54.80
2023-01-19T08:34:41.373Z,49.47
2023-01-19T08:36:43.453Z,41.22
2023-01-19T08:38:46.193Z,36.13
2023-01-19T08:42:50.837Z,32.63
2023-01-19T08:44:58.027Z,33.00
2023-01-19T08:47:00.591Z,29.80
2023-01-19T08:49:02.643Z,28.77
2023-01-19T08:51:04.871Z,30.23
2023-01-19T08:53:07.660Z,35.55
2023-01-19T08:55:11.335Z,37.83
2023-01-19T08:57:13.398Z,40.00
2023-01-19T08:59:15.472Z,46.03
2023-01-19T09:01:18.789Z,47.25
2023-01-19T09:03:22.772Z,43.08
2023-01-19T09:05:24.889Z,38.80
2023-01-19T09:07:26.980Z,39.17
2023-01-19T09:09:29.235Z,36.40
2023-01-19T09:11:31.327Z,31.50
2023-01-19T09:13:33.421Z,31.83
2023-01-19T09:15:37.764Z,30.65
2023-01-19T09:17:42.304Z,29.38
2023-01-19T09:19:44.352Z,30.52
2023-01-19T09:21:46.434Z,32.95
2023-01-19T09:23:49.319Z,31.48
2023-01-19T09:25:59.949Z,30.92
2023-01-19T09:28:02.899Z,30.95
2023-01-19T09:30:06.905Z,30.25
2023-01-19T09:32:11.219Z,32.85
2023-01-19T09:34:13.400Z,32.40
2023-01-19T09:36:15.544Z,31.52
2023-01-19T09:38:19.410Z,33.60
2023-01-19T09:40:21.579Z,31.88
2023-01-19T09:42:45.399Z,31.83
2023-01-19T09:44:47.986Z,30.23
2023-01-19T09:48:57.832Z,28.17
2023-01-19T09:51:02.925Z,29.17
2023-01-19T09:53:13.992Z,29.50
2023-01-19T09:55:26.312Z,28.95
2023-01-19T09:57:28.496Z,30.33
2023-01-19T09:59:32.044Z,31.58
2023-01-19T10:02:06.940Z,31.45
2023-01-19T10:04:46.561Z,34.70
2023-01-19T10:06:48.703Z,33.55
2023-01-19T10:09:25.358Z,36.25
2023-01-19T10:11:51.924Z,35.53
2023-01-19T10:13:54.729Z,34.47
2023-01-19T10:16:33.950Z,35.53
2023-01-19T10:18:51.764Z,32.95
2023-01-19T10:21:11.236Z,30.88
2023-01-19T10:24:16.540Z,32.72
2023-01-19T10:26:34.019Z,29.60
2023-01-19T10:28:36.235Z,32.00
2023-01-19T10:30:38.427Z,31.08
2023-01-19T10:32:40.504Z,33.30
2023-01-19T10:34:42.781Z,32.83
2023-01-19T10:36:48.690Z,32.10
2023-01-19T10:38:51.040Z,35.40
2023-01-19T10:40:58.739Z,33.63
2023-01-19T10:43:01.230Z,35.72
2023-01-19T10:45:04.944Z,34.35
2023-01-19T10:47:07.155Z,33.60
2023-01-19T10:49:35.517Z,35.42
2023-01-19T10:51:47.793Z,34.88
2023-01-19T10:54:03.491Z,32.38
2023-01-19T10:56:17.748Z,32.80
2023-01-19T10:58:30.872Z,34.60
2023-01-19T11:00:42.988Z,33.90
2023-01-19T11:02:50.484Z,35.30
2023-01-19T11:05:20.557Z,37.50
2023-01-19T11:07:30.317Z,36.38
2023-01-19T11:09:32.313Z,39.97
2023-01-19T11:11:34.316Z,39.05
2023-01-19T11:13:36.960Z,37.17
2023-01-19T11:18:24.693Z,37.42
2023-01-19T11:20:30.205Z,37.40
2023-01-19T11:22:33.228Z,37.70
2023-01-19T11:24:38.410Z,37.30
2023-01-19T11:26:41.191Z,37.25
2023-01-19T11:31:20.006Z,38.13
2023-01-19T11:33:32.509Z,38.20
2023-01-19T11:35:40.390Z,37.58
2023-01-19T11:37:43.296Z,38.22
2023-01-19T11:39:59.034Z,38.35
2023-01-19T11:42:04.895Z,36.13
2023-01-19T11:44:22.725Z,36.22
2023-01-19T11:46:37.323Z,38.47
2023-01-19T11:48:48.022Z,38.45
2023-01-19T11:50:50.117Z,34.88
2023-01-19T11:53:06.361Z,35.47
2023-01-19T11:55:32.933Z,34.58
2023-01-19T11:57:35.012Z,34.47
2023-01-19T11:59:37.100Z,34.38
2023-01-19T12:01:45.683Z,30.88
2023-01-19T12:04:00.599Z,29.25
2023-01-19T12:06:06.230Z,31.52
2023-01-19T12:08:12.772Z,28.45
2023-01-19T12:10:25.984Z,28.02
2023-01-19T12:12:30.909Z,27.23
2023-01-19T12:14:41.473Z,26.85
2023-01-19T12:16:43.633Z,26.27
2023-01-19T12:19:16.996Z,26.27
2023-01-19T12:21:19.246Z,26.75
2023-01-19T12:23:42.534Z,29.77
2023-01-19T12:28:08.845Z,28.83
2023-01-19T12:30:24.533Z,30.23
2023-01-19T12:32:34.554Z,29.15
2023-01-19T12:34:43.115Z,29.77
2023-01-19T12:36:45.308Z,30.33
2023-01-19T12:39:16.460Z,30.25
2023-01-19T12:41:38.149Z,34.17
2023-01-19T12:43:40.208Z,33.28
2023-01-19T12:45:42.441Z,34.45
2023-01-19T12:47:53.062Z,34.42
2023-01-19T12:50:05.837Z,36.90
2023-01-19T12:52:34.799Z,34.55
2023-01-19T12:54:37.318Z,33.28
2023-01-19T12:56:39.402Z,33.05
2023-01-19T12:58:41.414Z,34.75
2023-01-19T13:00:47.271Z,33.20
2023-01-19T13:02:50.776Z,34.22
2023-01-19T13:05:17.050Z,33.50
2023-01-19T13:07:20.389Z,33.83
2023-01-19T13:09:30.037Z,36.75
2023-01-19T13:11:34.604Z,39.20
2023-01-19T13:13:40.252Z,37.92
2023-01-19T13:15:43.471Z,37.13
2023-01-19T13:17:52.105Z,39.15
2023-01-19T13:20:18.429Z,40.58
2023-01-19T13:22:51.253Z,43.25
2023-01-19T13:25:12.399Z,43.92
2023-01-19T13:27:14.487Z,45.95
2023-01-19T13:29:35.443Z,46.67
2023-01-19T13:31:39.589Z,48.63
2023-01-19T13:33:57.663Z,50.28
2023-01-19T13:35:59.804Z,47.55
2023-01-19T13:38:01.921Z,51.75
2023-01-19T13:40:04.412Z,49.88
2023-01-19T13:42:14.637Z,50.97
2023-01-19T13:44:29.708Z,49.45
2023-01-19T13:46:33.333Z,50.40
2023-01-19T13:48:35.428Z,53.13
2023-01-19T13:50:39.350Z,51.63
2023-01-19T13:52:43.761Z,55.80
2023-01-19T13:55:02.679Z,55.90
2023-01-19T13:57:05.334Z,53.75
2023-01-19T13:59:16.199Z,50.75
2023-01-19T14:01:23.156Z,49.97
2023-01-19T14:03:25.959Z,49.33
2023-01-19T14:05:31.555Z,49.17
2023-01-19T14:07:33.753Z,48.17
2023-01-19T14:09:35.952Z,51.38
2023-01-19T14:11:38.045Z,58.58
2023-01-19T14:13:44.900Z,57.20
2023-01-19T14:15:48.821Z,57.78
2023-01-19T14:18:08.607Z,56.45
2023-01-19T14:20:30.226Z,53.95
2023-01-19T14:22:45.636Z,56.97
2023-01-19T14:24:47.690Z,54.90
2023-01-19T14:26:54.681Z,57.38
2023-01-19T14:28:56.818Z,57.42
2023-01-19T14:31:04.634Z,55.25
2023-01-19T14:33:34.250Z,56.92
2023-01-19T14:35:36.453Z,49.20
2023-01-19T14:37:47.392Z,51.78
2023-01-19T14:40:12.931Z,53.60
2023-01-19T14:42:25.037Z,52.15
2023-01-19T14:44:38.492Z,52.42
2023-01-19T14:46:46.507Z,51.95
2023-01-19T14:48:49.396Z,55.05
2023-01-19T14:51:02.766Z,55.25
2023-01-19T14:53:19.197Z,59.67
2023-01-19T14:55:25.215Z,58.67
2023-01-19T14:57:27.292Z,59.53
2023-01-19T14:59:29.321Z,60.10
2023-01-19T15:01:32.041Z,58.50
2023-01-19T15:05:47.467Z,60.97
2023-01-19T15:07:49.699Z,61.35
2023-01-19T15:09:51.726Z,57.15
2023-01-19T15:11:53.866Z,55.80
2023-01-19T15:13:56.105Z,54.95
2023-01-19T15:15:59.010Z,58.88
2023-01-19T15:18:02.903Z,62.08
2023-01-19T15:20:07.032Z,72.05
2023-01-19T15:22:13.433Z,68.93
2023-01-19T15:24:17.850Z,76.40
2023-01-19T15:26:23.556Z,68.75
2023-01-19T15:28:25.598Z,64.93
2023-01-19T15:30:31.063Z,62.05
2023-01-19T15:32:33.316Z,58.78
2023-01-19T15:34:35.313Z,58.63
2023-01-19T15:36:37.361Z,55.03
2023-01-19T15:38:39.812Z,58.90
2023-01-19T15:40:41.944Z,58.53
2023-01-19T15:42:44.117Z,58.80
2023-01-19T15:44:46.184Z,58.05
2023-01-19T15:46:48.283Z,58.20
2023-01-19T15:48:50.788Z,58.85
2023-01-19T15:50:52.880Z,57.33
2023-01-19T15:52:54.988Z,53.83
2023-01-19T15:54:57.032Z,50.55
2023-01-19T15:56:59.141Z,50.47
2023-01-19T15:59:01.972Z,52.80
2023-01-19T16:01:04.050Z,57.22
2023-01-19T16:03:06.299Z,54.40
2023-01-19T16:05:09.349Z,48.90
2023-01-19T16:07:12.566Z,43.10
2023-01-19T16:09:18.524Z,46.22
2023-01-19T16:11:20.566Z,44.22
2023-01-19T16:13:22.683Z,43.17
2023-01-19T16:15:25.513Z,46.70
2023-01-19T16:17:27.752Z,49.00
2023-01-19T16:19:29.802Z,49.08
2023-01-19T16:21:31.930Z,47.55
2023-01-19T16:23:34.000Z,45.80
2023-01-19T16:25:36.021Z,46.53
2023-01-19T16:27:38.231Z,46.22
2023-01-19T16:29:40.323Z,45.05
2023-01-19T16:31:43.646Z,43.58
2023-01-19T16:33:45.966Z,40.63
2023-01-19T16:35:48.052Z,40.15
2023-01-19T16:37:53.303Z,42.08
2023-01-19T16:39:55.410Z,41.33
2023-01-19T16:41:57.452Z,39.72
2023-01-19T16:44:00.422Z,37.75
2023-01-19T16:46:04.410Z,39.60
2023-01-19T16:48:06.845Z,42.30
2023-01-19T16:50:11.963Z,39.80
2023-01-19T16:52:14.453Z,41.08
2023-01-19T16:54:19.796Z,40.05
2023-01-19T16:56:21.855Z,38.80
2023-01-19T16:58:23.980Z,39.22
2023-01-19T17:00:26.072Z,39.65
2023-01-19T17:02:28.095Z,41.20
2023-01-19T17:04:30.322Z,41.22
2023-01-19T17:06:32.357Z,41.63
2023-01-19T17:08:35.122Z,41.15
2023-01-19T17:10:37.282Z,41.88
2023-01-19T17:12:39.346Z,41.47
2023-01-19T17:14:43.162Z,41.78
2023-01-19T17:16:45.365Z,42.70
2023-01-19T17:18:47.455Z,42.60
2023-01-19T17:20:49.505Z,39.92
2023-01-19T17:22:51.608Z,40.78
2023-01-19T17:24:53.704Z,41.22
2023-01-19T17:26:55.826Z,40.13
2023-01-19T17:29:01.604Z,42.53
2023-01-19T17:31:08.414Z,42.60
2023-01-19T17:33:10.546Z,42.75
2023-01-19T17:35:12.665Z,45.33
2023-01-19T17:37:14.728Z,44.13
2023-01-19T17:39:18.559Z,44.38
2023-01-19T17:41:31.781Z,42.85
2023-01-19T17:43:33.992Z,43.92
2023-01-19T17:45:36.536Z,40.35
2023-01-19T17:49:40.967Z,36.90
2023-01-19T17:51:43.074Z,35.63
2023-01-19T17:53:45.346Z,36.60
2023-01-19T17:55:47.400Z,36.22
2023-01-19T17:57:49.450Z,36.25
2023-01-19T17:59:51.652Z,33.63
2023-01-19T18:01:53.805Z,31.15
2023-01-19T18:03:56.271Z,28.75
2023-01-19T18:05:58.469Z,29.13
2023-01-19T18:08:00.599Z,28.60
2023-01-19T18:10:02.711Z,28.70
2023-01-19T18:12:05.012Z,29.10
2023-01-19T18:14:07.185Z,29.33
2023-01-19T18:16:14.609Z,30.52
2023-01-19T18:18:17.196Z,30.70
2023-01-19T18:20:19.584Z,31.88
2023-01-19T18:22:23.365Z,32.05
2023-01-19T18:24:25.866Z,33.05
2023-01-19T18:26:28.127Z,32.75
2023-01-19T18:28:30.253Z,31.25
2023-01-19T18:30:35.877Z,31.08
2023-01-19T18:32:37.982Z,32.85
2023-01-19T18:34:41.894Z,30.98
2023-01-19T18:36:44.862Z,32.17
2023-01-19T18:38:47.170Z,33.72
2023-01-19T18:44:43.642Z,30.38
2023-01-19T18:46:46.001Z,30.70
2023-01-19T18:48:48.268Z,30.00
2023-01-19T18:50:53.877Z,30.58
2023-01-19T18:53:09.281Z,30.05
2023-01-19T18:55:16.715Z,28.52
2023-01-19T18:57:21.716Z,30.65
2023-01-19T19:36:29.612Z,32.08
2023-01-19T21:17:51.783Z,27.55
2023-01-19T21:27:25.259Z,26.67
